sensor_id;sensor_type;location;lat;lon;timestamp;P1;durP1;ratioP1;P2;durP2;ratioP2
63346;SDS011;49472;49.880;8.650;2022-11-21T00:00:36;14.83;;;12.47;;
63346;SDS011;49472;49.880;8.650;2022-11-21T00:03:01;14.80;;;13.20;;
63346;SDS011;49472;49.880;8.650;2022-11-21T00:05:29;18.87;;;13.60;;
63346;SDS011;49472;49.880;8.650;2022-11-21T00:07:56;17.43;;;13.10;;
63346;SDS011;49472;49.880;8.650;2022-11-21T00:10:22;14.80;;;13.60;;
63346;SDS011;49472;49.880;8.650;2022-11-21T00:12:55;15.80;;;12.23;;
63346;SDS011;49472;49.880;8.650;2022-11-21T00:15:21;14.93;;;13.40;;
63346;SDS011;49472;49.880;8.650;2022-11-21T00:17:48;17.67;;;13.07;;
63346;SDS011;49472;49.880;8.650;2022-11-21T00:20:15;13.70;;;12.30;;
63346;SDS011;49472;49.880;8.650;2022-11-21T00:22:41;15.00;;;13.40;;
63346;SDS011;49472;49.880;8.650;2022-11-21T00:25:06;16.37;;;12.87;;
63346;SDS011;49472;49.880;8.650;2022-11-21T00:27:32;12.10;;;11.30;;
63346;SDS011;49472;49.880;8.650;2022-11-21T00:29:57;12.73;;;11.67;;
63346;SDS011;49472;49.880;8.650;2022-11-21T00:32:22;20.60;;;11.83;;
63346;SDS011;49472;49.880;8.650;2022-11-21T00:34:48;24.03;;;12.60;;
63346;SDS011;49472;49.880;8.650;2022-11-21T00:37:13;15.20;;;12.60;;
63346;SDS011;49472;49.880;8.650;2022-11-21T00:39:38;18.93;;;11.67;;
63346;SDS011;49472;49.880;8.650;2022-11-21T00:42:04;16.00;;;11.30;;
63346;SDS011;49472;49.880;8.650;2022-11-21T00:44:29;15.20;;;11.80;;
63346;SDS011;49472;49.880;8.650;2022-11-21T00:46:54;19.03;;;12.80;;
63346;SDS011;49472;49.880;8.650;2022-11-21T00:49:19;15.97;;;12.27;;
63346;SDS011;49472;49.880;8.650;2022-11-21T00:51:45;15.47;;;12.70;;
63346;SDS011;49472;49.880;8.650;2022-11-21T00:54:10;14.07;;;11.90;;
63346;SDS011;49472;49.880;8.650;2022-11-21T00:56:35;20.10;;;12.50;;
63346;SDS011;49472;49.880;8.650;2022-11-21T00:59:01;19.10;;;11.77;;
63346;SDS011;49472;49.880;8.650;2022-11-21T01:01:26;25.83;;;13.57;;
63346;SDS011;49472;49.880;8.650;2022-11-21T01:03:51;11.83;;;11.03;;
63346;SDS011;49472;49.880;8.650;2022-11-21T01:06:16;18.40;;;11.77;;
63346;SDS011;49472;49.880;8.650;2022-11-21T01:08:42;15.30;;;12.20;;
63346;SDS011;49472;49.880;8.650;2022-11-21T01:11:16;25.60;;;12.27;;
63346;SDS011;49472;49.880;8.650;2022-11-21T01:13:43;17.47;;;11.70;;
63346;SDS011;49472;49.880;8.650;2022-11-21T01:16:09;13.17;;;11.80;;
63346;SDS011;49472;49.880;8.650;2022-11-21T01:18:35;20.47;;;12.40;;
63346;SDS011;49472;49.880;8.650;2022-11-21T01:21:01;22.17;;;12.97;;
63346;SDS011;49472;49.880;8.650;2022-11-21T01:23:32;26.97;;;12.80;;
63346;SDS011;49472;49.880;8.650;2022-11-21T01:26:01;22.83;;;12.90;;
63346;SDS011;49472;49.880;8.650;2022-11-21T01:28:30;17.53;;;12.23;;
63346;SDS011;49472;49.880;8.650;2022-11-21T01:31:01;17.33;;;12.73;;
63346;SDS011;49472;49.880;8.650;2022-11-21T01:33:28;16.60;;;13.27;;
63346;SDS011;49472;49.880;8.650;2022-11-21T01:35:53;21.10;;;13.80;;
63346;SDS011;49472;49.880;8.650;2022-11-21T01:38:18;16.70;;;13.10;;
63346;SDS011;49472;49.880;8.650;2022-11-21T01:40:44;25.87;;;12.60;;
63346;SDS011;49472;49.880;8.650;2022-11-21T01:43:12;13.47;;;12.30;;
63346;SDS011;49472;49.880;8.650;2022-11-21T01:45:52;15.37;;;13.77;;
63346;SDS011;49472;49.880;8.650;2022-11-21T01:48:38;15.40;;;13.00;;
63346;SDS011;49472;49.880;8.650;2022-11-21T01:51:06;23.27;;;12.77;;
63346;SDS011;49472;49.880;8.650;2022-11-21T01:53:37;17.83;;;13.63;;
63346;SDS011;49472;49.880;8.650;2022-11-21T01:56:06;19.57;;;13.03;;
63346;SDS011;49472;49.880;8.650;2022-11-21T01:58:32;14.33;;;12.90;;
63346;SDS011;49472;49.880;8.650;2022-11-21T02:00:59;22.03;;;12.97;;
63346;SDS011;49472;49.880;8.650;2022-11-21T02:03:26;23.27;;;12.90;;
63346;SDS011;49472;49.880;8.650;2022-11-21T02:05:55;15.93;;;12.50;;
63346;SDS011;49472;49.880;8.650;2022-11-21T02:08:22;18.00;;;12.80;;
63346;SDS011;49472;49.880;8.650;2022-11-21T02:13:44;25.07;;;13.20;;
63346;SDS011;49472;49.880;8.650;2022-11-21T02:16:09;20.67;;;12.60;;
63346;SDS011;49472;49.880;8.650;2022-11-21T02:18:34;13.20;;;12.07;;
63346;SDS011;49472;49.880;8.650;2022-11-21T02:21:09;14.50;;;12.93;;
63346;SDS011;49472;49.880;8.650;2022-11-21T02:23:48;24.57;;;13.70;;
63346;SDS011;49472;49.880;8.650;2022-11-21T02:26:20;12.47;;;11.60;;
63346;SDS011;49472;49.880;8.650;2022-11-21T02:28:45;28.00;;;14.20;;
63346;SDS011;49472;49.880;8.650;2022-11-21T02:31:11;17.00;;;13.03;;
63346;SDS011;49472;49.880;8.650;2022-11-21T02:33:36;19.97;;;13.00;;
63346;SDS011;49472;49.880;8.650;2022-11-21T02:36:01;22.53;;;13.80;;
63346;SDS011;49472;49.880;8.650;2022-11-21T02:38:34;15.70;;;13.90;;
63346;SDS011;49472;49.880;8.650;2022-11-21T02:41:09;18.33;;;12.30;;
63346;SDS011;49472;49.880;8.650;2022-11-21T02:43:54;19.27;;;12.93;;
63346;SDS011;49472;49.880;8.650;2022-11-21T02:46:24;23.23;;;13.50;;
63346;SDS011;49472;49.880;8.650;2022-11-21T02:48:51;31.80;;;12.80;;
63346;SDS011;49472;49.880;8.650;2022-11-21T02:51:17;22.53;;;12.30;;
63346;SDS011;49472;49.880;8.650;2022-11-21T02:53:42;22.37;;;12.23;;
63346;SDS011;49472;49.880;8.650;2022-11-21T02:56:08;24.23;;;13.07;;
63346;SDS011;49472;49.880;8.650;2022-11-21T02:58:33;17.43;;;12.63;;
63346;SDS011;49472;49.880;8.650;2022-11-21T03:00:58;24.97;;;12.43;;
63346;SDS011;49472;49.880;8.650;2022-11-21T03:03:24;16.43;;;12.70;;
63346;SDS011;49472;49.880;8.650;2022-11-21T03:05:49;20.77;;;13.53;;
63346;SDS011;49472;49.880;8.650;2022-11-21T03:08:14;14.57;;;11.90;;
63346;SDS011;49472;49.880;8.650;2022-11-21T03:10:39;13.37;;;12.07;;
63346;SDS011;49472;49.880;8.650;2022-11-21T03:13:05;15.70;;;12.77;;
63346;SDS011;49472;49.880;8.650;2022-11-21T03:15:31;14.23;;;12.50;;
63346;SDS011;49472;49.880;8.650;2022-11-21T03:17:58;14.30;;;12.50;;
63346;SDS011;49472;49.880;8.650;2022-11-21T03:20:28;14.13;;;12.73;;
63346;SDS011;49472;49.880;8.650;2022-11-21T03:22:55;18.60;;;13.23;;
63346;SDS011;49472;49.880;8.650;2022-11-21T03:25:20;18.30;;;13.23;;
63346;SDS011;49472;49.880;8.650;2022-11-21T03:27:45;14.93;;;13.30;;
63346;SDS011;49472;49.880;8.650;2022-11-21T03:30:14;20.90;;;13.50;;
63346;SDS011;49472;49.880;8.650;2022-11-21T03:32:40;20.00;;;13.23;;
63346;SDS011;49472;49.880;8.650;2022-11-21T03:35:05;18.63;;;13.87;;
63346;SDS011;49472;49.880;8.650;2022-11-21T03:37:31;14.67;;;13.20;;
63346;SDS011;49472;49.880;8.650;2022-11-21T03:39:56;24.77;;;14.20;;
63346;SDS011;49472;49.880;8.650;2022-11-21T03:42:21;19.93;;;13.70;;
63346;SDS011;49472;49.880;8.650;2022-11-21T03:44:47;17.93;;;13.40;;
63346;SDS011;49472;49.880;8.650;2022-11-21T03:47:12;15.60;;;13.40;;
63346;SDS011;49472;49.880;8.650;2022-11-21T03:49:37;15.37;;;14.03;;
63346;SDS011;49472;49.880;8.650;2022-11-21T03:52:02;15.17;;;13.53;;
63346;SDS011;49472;49.880;8.650;2022-11-21T03:54:28;20.03;;;13.83;;
63346;SDS011;49472;49.880;8.650;2022-11-21T03:56:53;15.00;;;13.30;;
63346;SDS011;49472;49.880;8.650;2022-11-21T03:59:18;15.77;;;13.97;;
63346;SDS011;49472;49.880;8.650;2022-11-21T04:01:44;14.20;;;12.83;;
63346;SDS011;49472;49.880;8.650;2022-11-21T04:04:09;15.30;;;13.90;;
63346;SDS011;49472;49.880;8.650;2022-11-21T04:06:34;19.80;;;14.20;;
63346;SDS011;49472;49.880;8.650;2022-11-21T04:09:00;16.57;;;12.90;;
63346;SDS011;49472;49.880;8.650;2022-11-21T04:11:25;16.80;;;12.97;;
63346;SDS011;49472;49.880;8.650;2022-11-21T04:13:51;14.40;;;12.40;;
63346;SDS011;49472;49.880;8.650;2022-11-21T04:16:16;25.40;;;13.30;;
63346;SDS011;49472;49.880;8.650;2022-11-21T04:18:42;18.63;;;12.40;;
63346;SDS011;49472;49.880;8.650;2022-11-21T04:21:07;21.63;;;13.50;;
63346;SDS011;49472;49.880;8.650;2022-11-21T04:23:33;19.47;;;14.10;;
63346;SDS011;49472;49.880;8.650;2022-11-21T04:25:59;14.27;;;12.87;;
63346;SDS011;49472;49.880;8.650;2022-11-21T04:28:24;16.27;;;13.27;;
63346;SDS011;49472;49.880;8.650;2022-11-21T04:30:49;13.80;;;12.37;;
63346;SDS011;49472;49.880;8.650;2022-11-21T04:33:16;15.93;;;11.93;;
63346;SDS011;49472;49.880;8.650;2022-11-21T04:35:42;19.50;;;13.73;;
63346;SDS011;49472;49.880;8.650;2022-11-21T04:38:08;18.17;;;13.63;;
63346;SDS011;49472;49.880;8.650;2022-11-21T04:40:34;14.60;;;13.07;;
63346;SDS011;49472;49.880;8.650;2022-11-21T04:43:00;25.57;;;13.43;;
63346;SDS011;49472;49.880;8.650;2022-11-21T04:45:25;22.23;;;12.70;;
63346;SDS011;49472;49.880;8.650;2022-11-21T04:47:51;18.23;;;14.43;;
63346;SDS011;49472;49.880;8.650;2022-11-21T04:50:16;15.20;;;13.70;;
63346;SDS011;49472;49.880;8.650;2022-11-21T04:52:48;22.17;;;14.33;;
63346;SDS011;49472;49.880;8.650;2022-11-21T04:55:18;25.80;;;13.00;;
63346;SDS011;49472;49.880;8.650;2022-11-21T04:57:45;16.93;;;13.50;;
63346;SDS011;49472;49.880;8.650;2022-11-21T05:00:11;24.03;;;13.40;;
63346;SDS011;49472;49.880;8.650;2022-11-21T05:02:37;24.57;;;13.80;;
63346;SDS011;49472;49.880;8.650;2022-11-21T05:05:03;16.17;;;13.60;;
63346;SDS011;49472;49.880;8.650;2022-11-21T05:07:28;17.53;;;12.80;;
63346;SDS011;49472;49.880;8.650;2022-11-21T05:09:54;14.10;;;12.10;;
63346;SDS011;49472;49.880;8.650;2022-11-21T05:12:19;19.80;;;13.07;;
63346;SDS011;49472;49.880;8.650;2022-11-21T05:15:03;13.83;;;12.47;;
63346;SDS011;49472;49.880;8.650;2022-11-21T05:17:29;19.10;;;12.63;;
63346;SDS011;49472;49.880;8.650;2022-11-21T05:19:54;29.10;;;13.20;;
63346;SDS011;49472;49.880;8.650;2022-11-21T05:22:20;14.77;;;13.27;;
63346;SDS011;49472;49.880;8.650;2022-11-21T05:24:45;17.83;;;13.43;;
63346;SDS011;49472;49.880;8.650;2022-11-21T05:27:10;13.77;;;12.33;;
63346;SDS011;49472;49.880;8.650;2022-11-21T05:29:36;13.57;;;12.57;;
63346;SDS011;49472;49.880;8.650;2022-11-21T05:32:01;15.03;;;12.67;;
63346;SDS011;49472;49.880;8.650;2022-11-21T05:34:26;17.70;;;12.83;;
63346;SDS011;49472;49.880;8.650;2022-11-21T05:36:52;14.17;;;12.80;;
63346;SDS011;49472;49.880;8.650;2022-11-21T05:39:23;13.80;;;12.60;;
63346;SDS011;49472;49.880;8.650;2022-11-21T05:41:49;18.03;;;13.17;;
63346;SDS011;49472;49.880;8.650;2022-11-21T05:44:14;15.43;;;13.40;;
63346;SDS011;49472;49.880;8.650;2022-11-21T05:46:40;15.60;;;12.93;;
63346;SDS011;49472;49.880;8.650;2022-11-21T05:49:05;13.73;;;12.70;;
63346;SDS011;49472;49.880;8.650;2022-11-21T05:51:31;14.00;;;12.90;;
63346;SDS011;49472;49.880;8.650;2022-11-21T05:53:56;14.40;;;13.20;;
63346;SDS011;49472;49.880;8.650;2022-11-21T05:56:21;24.60;;;14.60;;
63346;SDS011;49472;49.880;8.650;2022-11-21T05:58:46;14.17;;;12.83;;
63346;SDS011;49472;49.880;8.650;2022-11-21T06:01:12;14.40;;;13.40;;
63346;SDS011;49472;49.880;8.650;2022-11-21T06:03:39;15.00;;;13.50;;
63346;SDS011;49472;49.880;8.650;2022-11-21T06:06:06;15.13;;;13.40;;
63346;SDS011;49472;49.880;8.650;2022-11-21T06:08:37;15.23;;;13.37;;
63346;SDS011;49472;49.880;8.650;2022-11-21T06:11:10;14.97;;;13.57;;
63346;SDS011;49472;49.880;8.650;2022-11-21T06:13:37;15.97;;;14.67;;
63346;SDS011;49472;49.880;8.650;2022-11-21T06:16:03;15.03;;;13.93;;
63346;SDS011;49472;49.880;8.650;2022-11-21T06:18:34;15.20;;;13.77;;
63346;SDS011;49472;49.880;8.650;2022-11-21T06:21:02;14.43;;;13.30;;
63346;SDS011;49472;49.880;8.650;2022-11-21T06:23:32;14.43;;;13.50;;
63346;SDS011;49472;49.880;8.650;2022-11-21T06:25:58;16.83;;;13.57;;
63346;SDS011;49472;49.880;8.650;2022-11-21T06:28:25;14.27;;;13.03;;
63346;SDS011;49472;49.880;8.650;2022-11-21T06:30:51;14.10;;;13.30;;
63346;SDS011;49472;49.880;8.650;2022-11-21T06:33:17;13.87;;;12.87;;
63346;SDS011;49472;49.880;8.650;2022-11-21T06:35:42;13.50;;;12.80;;
63346;SDS011;49472;49.880;8.650;2022-11-21T06:38:08;14.80;;;13.50;;
63346;SDS011;49472;49.880;8.650;2022-11-21T06:40:34;14.73;;;13.63;;
63346;SDS011;49472;49.880;8.650;2022-11-21T06:42:59;14.73;;;13.30;;
63346;SDS011;49472;49.880;8.650;2022-11-21T06:45:25;13.00;;;12.20;;
63346;SDS011;49472;49.880;8.650;2022-11-21T06:47:50;17.40;;;12.47;;
63346;SDS011;49472;49.880;8.650;2022-11-21T06:50:16;14.13;;;12.80;;
63346;SDS011;49472;49.880;8.650;2022-11-21T06:52:41;13.10;;;12.40;;
63346;SDS011;49472;49.880;8.650;2022-11-21T06:55:07;14.40;;;13.30;;
63346;SDS011;49472;49.880;8.650;2022-11-21T06:57:34;14.00;;;12.80;;
63346;SDS011;49472;49.880;8.650;2022-11-21T06:59:59;16.03;;;12.70;;
63346;SDS011;49472;49.880;8.650;2022-11-21T07:02:24;13.63;;;12.30;;
63346;SDS011;49472;49.880;8.650;2022-11-21T07:04:51;13.83;;;12.97;;
63346;SDS011;49472;49.880;8.650;2022-11-21T07:07:16;13.40;;;12.27;;
63346;SDS011;49472;49.880;8.650;2022-11-21T07:09:41;13.17;;;12.27;;
63346;SDS011;49472;49.880;8.650;2022-11-21T07:12:08;13.47;;;12.27;;
63346;SDS011;49472;49.880;8.650;2022-11-21T07:14:52;13.77;;;12.77;;
63346;SDS011;49472;49.880;8.650;2022-11-21T07:17:17;14.03;;;12.30;;
63346;SDS011;49472;49.880;8.650;2022-11-21T07:19:42;13.63;;;12.53;;
63346;SDS011;49472;49.880;8.650;2022-11-21T07:22:08;13.87;;;12.77;;
63346;SDS011;49472;49.880;8.650;2022-11-21T07:24:33;14.20;;;13.10;;
63346;SDS011;49472;49.880;8.650;2022-11-21T07:27:00;13.80;;;12.53;;
63346;SDS011;49472;49.880;8.650;2022-11-21T07:29:25;13.90;;;12.90;;
63346;SDS011;49472;49.880;8.650;2022-11-21T07:31:50;13.37;;;12.57;;
63346;SDS011;49472;49.880;8.650;2022-11-21T07:34:16;13.80;;;12.80;;
63346;SDS011;49472;49.880;8.650;2022-11-21T07:36:41;14.13;;;13.10;;
63346;SDS011;49472;49.880;8.650;2022-11-21T07:39:06;14.67;;;13.40;;
63346;SDS011;49472;49.880;8.650;2022-11-21T07:41:32;14.90;;;13.73;;
63346;SDS011;49472;49.880;8.650;2022-11-21T07:43:57;14.57;;;13.17;;
63346;SDS011;49472;49.880;8.650;2022-11-21T07:46:22;14.73;;;13.63;;
63346;SDS011;49472;49.880;8.650;2022-11-21T07:48:48;14.80;;;13.80;;
63346;SDS011;49472;49.880;8.650;2022-11-21T07:51:14;15.00;;;13.80;;
63346;SDS011;49472;49.880;8.650;2022-11-21T07:53:39;15.60;;;14.10;;
63346;SDS011;49472;49.880;8.650;2022-11-21T07:56:04;21.73;;;14.10;;
63346;SDS011;49472;49.880;8.650;2022-11-21T07:58:33;14.87;;;13.47;;
63346;SDS011;49472;49.880;8.650;2022-11-21T08:01:01;13.73;;;12.90;;
63346;SDS011;49472;49.880;8.650;2022-11-21T08:03:28;14.30;;;13.20;;
63346;SDS011;49472;49.880;8.650;2022-11-21T08:05:53;14.60;;;13.30;;
63346;SDS011;49472;49.880;8.650;2022-11-21T08:08:19;14.83;;;13.73;;
63346;SDS011;49472;49.880;8.650;2022-11-21T08:10:44;13.77;;;12.87;;
63346;SDS011;49472;49.880;8.650;2022-11-21T08:13:11;14.07;;;12.97;;
63346;SDS011;49472;49.880;8.650;2022-11-21T08:15:37;15.70;;;12.83;;
63346;SDS011;49472;49.880;8.650;2022-11-21T08:18:09;15.03;;;13.60;;
63346;SDS011;49472;49.880;8.650;2022-11-21T08:20:39;14.57;;;13.40;;
63346;SDS011;49472;49.880;8.650;2022-11-21T08:23:05;15.40;;;13.80;;
63346;SDS011;49472;49.880;8.650;2022-11-21T08:25:31;15.03;;;13.60;;
63346;SDS011;49472;49.880;8.650;2022-11-21T08:27:58;18.20;;;16.30;;
63346;SDS011;49472;49.880;8.650;2022-11-21T08:30:23;17.20;;;15.43;;
63346;SDS011;49472;49.880;8.650;2022-11-21T08:32:49;40.73;;;31.40;;
63346;SDS011;49472;49.880;8.650;2022-11-21T08:35:14;16.63;;;15.00;;
63346;SDS011;49472;49.880;8.650;2022-11-21T08:37:40;14.47;;;13.33;;
63346;SDS011;49472;49.880;8.650;2022-11-21T08:40:05;14.73;;;13.73;;
63346;SDS011;49472;49.880;8.650;2022-11-21T08:42:31;18.03;;;16.40;;
63346;SDS011;49472;49.880;8.650;2022-11-21T08:44:56;18.70;;;14.20;;
63346;SDS011;49472;49.880;8.650;2022-11-21T08:47:22;15.50;;;14.00;;
63346;SDS011;49472;49.880;8.650;2022-11-21T08:49:47;18.17;;;15.00;;
63346;SDS011;49472;49.880;8.650;2022-11-21T08:52:13;16.17;;;14.60;;
63346;SDS011;49472;49.880;8.650;2022-11-21T08:54:41;17.50;;;15.97;;
63346;SDS011;49472;49.880;8.650;2022-11-21T08:57:08;15.97;;;14.50;;
63346;SDS011;49472;49.880;8.650;2022-11-21T08:59:33;18.33;;;16.10;;
63346;SDS011;49472;49.880;8.650;2022-11-21T09:01:58;15.60;;;14.00;;
63346;SDS011;49472;49.880;8.650;2022-11-21T09:04:24;16.20;;;14.53;;
63346;SDS011;49472;49.880;8.650;2022-11-21T09:06:49;18.37;;;16.50;;
63346;SDS011;49472;49.880;8.650;2022-11-21T09:09:14;14.97;;;13.77;;
63346;SDS011;49472;49.880;8.650;2022-11-21T09:11:40;16.33;;;14.17;;
63346;SDS011;49472;49.880;8.650;2022-11-21T09:14:05;15.50;;;13.93;;
63346;SDS011;49472;49.880;8.650;2022-11-21T09:16:49;19.13;;;13.80;;
63346;SDS011;49472;49.880;8.650;2022-11-21T09:19:33;15.57;;;14.00;;
63346;SDS011;49472;49.880;8.650;2022-11-21T09:21:58;23.17;;;16.17;;
63346;SDS011;49472;49.880;8.650;2022-11-21T09:24:23;16.77;;;15.10;;
63346;SDS011;49472;49.880;8.650;2022-11-21T09:26:48;15.80;;;14.50;;
63346;SDS011;49472;49.880;8.650;2022-11-21T09:29:14;19.97;;;15.70;;
63346;SDS011;49472;49.880;8.650;2022-11-21T09:31:40;16.10;;;14.50;;
63346;SDS011;49472;49.880;8.650;2022-11-21T09:34:06;15.50;;;14.40;;
63346;SDS011;49472;49.880;8.650;2022-11-21T09:36:31;19.40;;;14.87;;
63346;SDS011;49472;49.880;8.650;2022-11-21T09:38:57;16.90;;;15.10;;
63346;SDS011;49472;49.880;8.650;2022-11-21T09:47:23;14.27;;;13.07;;
63346;SDS011;49472;49.880;8.650;2022-11-21T09:58:03;21.33;;;16.10;;
63346;SDS011;49472;49.880;8.650;2022-11-21T10:00:31;18.60;;;13.67;;
63346;SDS011;49472;49.880;8.650;2022-11-21T10:02:56;17.47;;;12.77;;
63346;SDS011;49472;49.880;8.650;2022-11-21T10:05:35;13.13;;;12.13;;
63346;SDS011;49472;49.880;8.650;2022-11-21T10:08:16;15.47;;;13.30;;
63346;SDS011;49472;49.880;8.650;2022-11-21T10:10:54;15.60;;;14.37;;
63346;SDS011;49472;49.880;8.650;2022-11-21T10:16:24;16.13;;;14.60;;
63346;SDS011;49472;49.880;8.650;2022-11-21T10:18:59;13.97;;;12.53;;
63346;SDS011;49472;49.880;8.650;2022-11-21T10:24:43;16.70;;;15.13;;
63346;SDS011;49472;49.880;8.650;2022-11-21T10:27:35;32.97;;;24.33;;
63346;SDS011;49472;49.880;8.650;2022-11-21T10:30:05;43.07;;;23.50;;
63346;SDS011;49472;49.880;8.650;2022-11-21T10:32:39;15.77;;;14.37;;
63346;SDS011;49472;49.880;8.650;2022-11-21T10:35:18;36.70;;;20.17;;
63346;SDS011;49472;49.880;8.650;2022-11-21T10:37:49;62.27;;;32.37;;
63346;SDS011;49472;49.880;8.650;2022-11-21T10:46:22;35.43;;;20.70;;
63346;SDS011;49472;49.880;8.650;2022-11-21T10:51:24;29.33;;;24.40;;
63346;SDS011;49472;49.880;8.650;2022-11-21T10:54:02;16.30;;;14.87;;
63346;SDS011;49472;49.880;8.650;2022-11-21T10:56:51;15.63;;;14.40;;
63346;SDS011;49472;49.880;8.650;2022-11-21T10:59:24;14.07;;;12.80;;
63346;SDS011;49472;49.880;8.650;2022-11-21T11:01:56;18.73;;;17.07;;
63346;SDS011;49472;49.880;8.650;2022-11-21T11:04:24;15.57;;;13.97;;
63346;SDS011;49472;49.880;8.650;2022-11-21T11:06:51;17.80;;;13.70;;
63346;SDS011;49472;49.880;8.650;2022-11-21T11:09:30;26.67;;;21.37;;
63346;SDS011;49472;49.880;8.650;2022-11-21T11:14:50;66.77;;;41.70;;
63346;SDS011;49472;49.880;8.650;2022-11-21T11:17:25;97.37;;;55.50;;
63346;SDS011;49472;49.880;8.650;2022-11-21T11:20:12;48.00;;;31.77;;
63346;SDS011;49472;49.880;8.650;2022-11-21T11:22:56;25.87;;;23.43;;
63346;SDS011;49472;49.880;8.650;2022-11-21T11:25:21;23.33;;;21.10;;
63346;SDS011;49472;49.880;8.650;2022-11-21T11:27:47;24.73;;;22.57;;
63346;SDS011;49472;49.880;8.650;2022-11-21T11:30:16;14.93;;;13.53;;
63346;SDS011;49472;49.880;8.650;2022-11-21T11:32:42;16.23;;;14.90;;
63346;SDS011;49472;49.880;8.650;2022-11-21T11:37:42;18.20;;;16.43;;
63346;SDS011;49472;49.880;8.650;2022-11-21T11:40:31;14.37;;;13.23;;
63346;SDS011;49472;49.880;8.650;2022-11-21T11:48:31;15.20;;;13.80;;
63346;SDS011;49472;49.880;8.650;2022-11-21T11:51:03;15.03;;;13.70;;
63346;SDS011;49472;49.880;8.650;2022-11-21T11:53:43;13.80;;;12.70;;
63346;SDS011;49472;49.880;8.650;2022-11-21T11:56:19;15.57;;;14.07;;
63346;SDS011;49472;49.880;8.650;2022-11-21T12:01:37;14.80;;;13.40;;
63346;SDS011;49472;49.880;8.650;2022-11-21T12:04:14;13.67;;;12.80;;
63346;SDS011;49472;49.880;8.650;2022-11-21T12:20:37;13.87;;;12.93;;
63346;SDS011;49472;49.880;8.650;2022-11-21T12:23:12;13.90;;;12.90;;
63346;SDS011;49472;49.880;8.650;2022-11-21T12:25:48;14.73;;;13.43;;
63346;SDS011;49472;49.880;8.650;2022-11-21T12:31:18;15.57;;;14.00;;
63346;SDS011;49472;49.880;8.650;2022-11-21T12:43:06;14.77;;;13.80;;
63346;SDS011;49472;49.880;8.650;2022-11-21T12:46:55;16.33;;;14.77;;
63346;SDS011;49472;49.880;8.650;2022-11-21T13:06:01;14.97;;;13.73;;
63346;SDS011;49472;49.880;8.650;2022-11-21T13:08:31;17.03;;;14.03;;
63346;SDS011;49472;49.880;8.650;2022-11-21T13:11:09;15.13;;;13.83;;
63346;SDS011;49472;49.880;8.650;2022-11-21T13:14:03;15.57;;;14.10;;
63346;SDS011;49472;49.880;8.650;2022-11-21T13:16:36;16.33;;;14.30;;
63346;SDS011;49472;49.880;8.650;2022-11-21T13:19:44;13.90;;;12.83;;
63346;SDS011;49472;49.880;8.650;2022-11-21T13:22:00;17.03;;;13.30;;
63346;SDS011;49472;49.880;8.650;2022-11-21T13:45:43;56.37;;;27.00;;
63346;SDS011;49472;49.880;8.650;2022-11-21T13:59:53;47.37;;;40.47;;
63346;SDS011;49472;49.880;8.650;2022-11-21T14:02:25;25.43;;;23.03;;
63346;SDS011;49472;49.880;8.650;2022-11-21T14:07:33;17.33;;;14.47;;
63346;SDS011;49472;49.880;8.650;2022-11-21T14:10:01;14.27;;;13.17;;
63346;SDS011;49472;49.880;8.650;2022-11-21T14:12:31;15.27;;;14.07;;
63346;SDS011;49472;49.880;8.650;2022-11-21T14:17:47;15.40;;;14.10;;
63346;SDS011;49472;49.880;8.650;2022-11-21T14:20:19;18.83;;;14.30;;
63346;SDS011;49472;49.880;8.650;2022-11-21T14:28:04;15.83;;;14.00;;
63346;SDS011;49472;49.880;8.650;2022-11-21T14:35:48;16.10;;;13.57;;
63346;SDS011;49472;49.880;8.650;2022-11-21T14:38:18;14.60;;;13.07;;
63346;SDS011;49472;49.880;8.650;2022-11-21T14:40:44;14.47;;;13.13;;
63346;SDS011;49472;49.880;8.650;2022-11-21T14:46:14;14.27;;;12.80;;
63346;SDS011;49472;49.880;8.650;2022-11-21T14:48:40;14.60;;;13.50;;
63346;SDS011;49472;49.880;8.650;2022-11-21T14:51:07;19.53;;;14.40;;
63346;SDS011;49472;49.880;8.650;2022-11-21T14:53:34;15.60;;;14.10;;
63346;SDS011;49472;49.880;8.650;2022-11-21T14:56:04;23.47;;;13.63;;
63346;SDS011;49472;49.880;8.650;2022-11-21T14:58:29;18.30;;;16.80;;
63346;SDS011;49472;49.880;8.650;2022-11-21T15:01:02;16.73;;;15.17;;
63346;SDS011;49472;49.880;8.650;2022-11-21T15:03:32;23.50;;;15.20;;
63346;SDS011;49472;49.880;8.650;2022-11-21T15:06:02;29.80;;;15.80;;
63346;SDS011;49472;49.880;8.650;2022-11-21T15:08:29;15.97;;;14.57;;
63346;SDS011;49472;49.880;8.650;2022-11-21T15:10:56;17.33;;;14.77;;
63346;SDS011;49472;49.880;8.650;2022-11-21T15:13:23;20.60;;;16.00;;
63346;SDS011;49472;49.880;8.650;2022-11-21T15:15:54;16.70;;;14.07;;
63346;SDS011;49472;49.880;8.650;2022-11-21T15:18:25;15.73;;;14.33;;
63346;SDS011;49472;49.880;8.650;2022-11-21T15:20:58;17.53;;;15.30;;
63346;SDS011;49472;49.880;8.650;2022-11-21T15:25:58;15.70;;;13.43;;
63346;SDS011;49472;49.880;8.650;2022-11-21T15:28:24;16.13;;;14.43;;
63346;SDS011;49472;49.880;8.650;2022-11-21T15:36:30;18.90;;;14.00;;
63346;SDS011;49472;49.880;8.650;2022-11-21T15:39:10;15.73;;;13.63;;
63346;SDS011;49472;49.880;8.650;2022-11-21T15:41:42;16.50;;;15.00;;
63346;SDS011;49472;49.880;8.650;2022-11-21T15:46:34;17.30;;;15.60;;
63346;SDS011;49472;49.880;8.650;2022-11-21T15:49:07;15.63;;;14.30;;
63346;SDS011;49472;49.880;8.650;2022-11-21T15:54:04;25.23;;;18.30;;
63346;SDS011;49472;49.880;8.650;2022-11-21T15:56:31;16.17;;;14.90;;
63346;SDS011;49472;49.880;8.650;2022-11-21T15:58:57;17.17;;;15.67;;
63346;SDS011;49472;49.880;8.650;2022-11-21T16:01:24;20.30;;;18.50;;
63346;SDS011;49472;49.880;8.650;2022-11-21T16:03:52;21.53;;;19.40;;
63346;SDS011;49472;49.880;8.650;2022-11-21T16:06:19;16.53;;;14.93;;
63346;SDS011;49472;49.880;8.650;2022-11-21T16:08:45;17.43;;;14.40;;
63346;SDS011;49472;49.880;8.650;2022-11-21T16:11:21;18.60;;;15.57;;
63346;SDS011;49472;49.880;8.650;2022-11-21T16:13:50;29.13;;;14.43;;
63346;SDS011;49472;49.880;8.650;2022-11-21T16:16:17;23.23;;;15.37;;
63346;SDS011;49472;49.880;8.650;2022-11-21T16:18:44;15.10;;;13.70;;
63346;SDS011;49472;49.880;8.650;2022-11-21T16:21:09;21.67;;;15.80;;
63346;SDS011;49472;49.880;8.650;2022-11-21T16:23:35;19.93;;;15.77;;
63346;SDS011;49472;49.880;8.650;2022-11-21T16:26:01;16.50;;;15.17;;
63346;SDS011;49472;49.880;8.650;2022-11-21T16:28:27;18.97;;;14.93;;
63346;SDS011;49472;49.880;8.650;2022-11-21T16:30:52;15.00;;;13.73;;
63346;SDS011;49472;49.880;8.650;2022-11-21T16:33:18;18.60;;;14.70;;
63346;SDS011;49472;49.880;8.650;2022-11-21T16:35:43;17.17;;;14.60;;
63346;SDS011;49472;49.880;8.650;2022-11-21T16:38:09;16.40;;;14.43;;
63346;SDS011;49472;49.880;8.650;2022-11-21T16:40:35;18.20;;;15.27;;
63346;SDS011;49472;49.880;8.650;2022-11-21T16:43:07;23.03;;;15.47;;
63346;SDS011;49472;49.880;8.650;2022-11-21T16:45:37;17.93;;;16.00;;
63346;SDS011;49472;49.880;8.650;2022-11-21T16:48:03;17.10;;;15.43;;
63346;SDS011;49472;49.880;8.650;2022-11-21T16:50:29;19.83;;;16.53;;
63346;SDS011;49472;49.880;8.650;2022-11-21T16:52:55;18.33;;;16.37;;
63346;SDS011;49472;49.880;8.650;2022-11-21T16:55:20;22.53;;;15.20;;
63346;SDS011;49472;49.880;8.650;2022-11-21T16:57:47;22.53;;;15.07;;
63346;SDS011;49472;49.880;8.650;2022-11-21T17:00:21;16.27;;;14.80;;